sensor_id;sensor_type;location;lat;lon;timestamp;P1;durP1;ratioP1;P2;durP2;ratioP2
26822;SDS011;14852;51.910;8.878;2024-03-23T00:53:59;8.52;;;3.20;;
26822;SDS011;14852;51.910;8.878;2024-03-23T00:56:25;7.18;;;2.20;;
26822;SDS011;14852;51.910;8.878;2024-03-23T00:58:50;6.55;;;1.83;;
26822;SDS011;14852;51.910;8.878;2024-03-23T01:01:16;4.45;;;2.58;;
26822;SDS011;14852;51.910;8.878;2024-03-23T01:03:42;8.32;;;2.47;;
26822;SDS011;14852;51.910;8.878;2024-03-23T01:06:08;4.78;;;1.90;;
26822;SDS011;14852;51.910;8.878;2024-03-23T01:08:33;5.40;;;2.92;;
26822;SDS011;14852;51.910;8.878;2024-03-23T01:11:00;5.78;;;2.10;;
26822;SDS011;14852;51.910;8.878;2024-03-23T01:13:27;4.90;;;2.22;;
26822;SDS011;14852;51.910;8.878;2024-03-23T01:15:54;9.05;;;3.10;;
26822;SDS011;14852;51.910;8.878;2024-03-23T01:18:22;4.50;;;2.20;;
26822;SDS011;14852;51.910;8.878;2024-03-23T01:20:48;5.85;;;2.33;;
26822;SDS011;14852;51.910;8.878;2024-03-23T01:23:14;5.57;;;2.25;;
26822;SDS011;14852;51.910;8.878;2024-03-23T01:25:40;5.53;;;2.25;;
26822;SDS011;14852;51.910;8.878;2024-03-23T01:28:06;4.55;;;2.35;;
26822;SDS011;14852;51.910;8.878;2024-03-23T01:30:33;5.75;;;2.10;;
26822;SDS011;14852;51.910;8.878;2024-03-23T01:32:59;6.57;;;2.72;;
26822;SDS011;14852;51.910;8.878;2024-03-23T01:35:25;5.43;;;2.60;;
26822;SDS011;14852;51.910;8.878;2024-03-23T01:37:52;3.75;;;2.13;;
26822;SDS011;14852;51.910;8.878;2024-03-23T01:40:17;5.32;;;2.72;;
26822;SDS011;14852;51.910;8.878;2024-03-23T01:43:05;7.38;;;3.55;;
26822;SDS011;14852;51.910;8.878;2024-03-23T01:45:31;6.68;;;3.20;;
26822;SDS011;14852;51.910;8.878;2024-03-23T01:47:57;5.13;;;2.63;;
26822;SDS011;14852;51.910;8.878;2024-03-23T01:50:24;7.45;;;2.40;;
26822;SDS011;14852;51.910;8.878;2024-03-23T01:52:50;7.35;;;3.17;;
26822;SDS011;14852;51.910;8.878;2024-03-23T01:55:16;8.85;;;3.15;;
26822;SDS011;14852;51.910;8.878;2024-03-23T01:57:42;6.93;;;3.15;;
26822;SDS011;14852;51.910;8.878;2024-03-23T02:00:08;6.80;;;2.88;;
26822;SDS011;14852;51.910;8.878;2024-03-23T02:02:43;6.30;;;3.03;;
26822;SDS011;14852;51.910;8.878;2024-03-23T02:05:10;8.77;;;3.13;;
26822;SDS011;14852;51.910;8.878;2024-03-23T02:07:37;5.40;;;3.45;;
26822;SDS011;14852;51.910;8.878;2024-03-23T02:10:08;9.57;;;3.08;;
26822;SDS011;14852;51.910;8.878;2024-03-23T02:12:35;8.90;;;3.50;;
26822;SDS011;14852;51.910;8.878;2024-03-23T02:15:02;6.43;;;2.80;;
26822;SDS011;14852;51.910;8.878;2024-03-23T02:17:29;6.00;;;3.25;;
26822;SDS011;14852;51.910;8.878;2024-03-23T02:19:57;5.32;;;2.67;;
26822;SDS011;14852;51.910;8.878;2024-03-23T02:22:22;7.38;;;3.00;;
26822;SDS011;14852;51.910;8.878;2024-03-23T02:24:48;5.85;;;3.22;;
26822;SDS011;14852;51.910;8.878;2024-03-23T02:27:14;6.68;;;2.85;;
26822;SDS011;14852;51.910;8.878;2024-03-23T02:29:40;7.20;;;2.85;;
26822;SDS011;14852;51.910;8.878;2024-03-23T02:32:05;9.52;;;4.15;;
26822;SDS011;14852;51.910;8.878;2024-03-23T02:34:34;7.13;;;2.58;;
26822;SDS011;14852;51.910;8.878;2024-03-23T02:37:00;4.93;;;2.58;;
26822;SDS011;14852;51.910;8.878;2024-03-23T02:39:26;7.05;;;2.28;;
26822;SDS011;14852;51.910;8.878;2024-03-23T02:41:51;7.13;;;2.80;;
26822;SDS011;14852;51.910;8.878;2024-03-23T02:44:17;6.78;;;3.78;;
26822;SDS011;14852;51.910;8.878;2024-03-23T02:46:43;6.60;;;2.78;;
26822;SDS011;14852;51.910;8.878;2024-03-23T02:49:09;4.32;;;2.30;;
26822;SDS011;14852;51.910;8.878;2024-03-23T02:51:35;7.80;;;3.67;;
26822;SDS011;14852;51.910;8.878;2024-03-23T02:54:00;7.45;;;3.28;;
26822;SDS011;14852;51.910;8.878;2024-03-23T02:56:26;7.28;;;3.35;;
26822;SDS011;14852;51.910;8.878;2024-03-23T02:58:52;5.68;;;2.60;;
26822;SDS011;14852;51.910;8.878;2024-03-23T03:01:18;4.75;;;2.38;;
26822;SDS011;14852;51.910;8.878;2024-03-23T03:03:43;7.50;;;3.15;;
26822;SDS011;14852;51.910;8.878;2024-03-23T03:06:09;7.13;;;2.65;;
26822;SDS011;14852;51.910;8.878;2024-03-23T03:08:35;6.57;;;2.90;;
26822;SDS011;14852;51.910;8.878;2024-03-23T03:11:01;6.20;;;3.20;;
26822;SDS011;14852;51.910;8.878;2024-03-23T03:13:27;7.15;;;2.50;;
26822;SDS011;14852;51.910;8.878;2024-03-23T03:15:52;6.00;;;2.70;;
26822;SDS011;14852;51.910;8.878;2024-03-23T03:18:18;7.65;;;2.80;;
26822;SDS011;14852;51.910;8.878;2024-03-23T03:20:44;7.20;;;2.60;;
26822;SDS011;14852;51.910;8.878;2024-03-23T03:23:10;5.70;;;2.30;;
26822;SDS011;14852;51.910;8.878;2024-03-23T03:25:36;5.35;;;2.65;;
26822;SDS011;14852;51.910;8.878;2024-03-23T03:28:02;7.90;;;2.58;;
26822;SDS011;14852;51.910;8.878;2024-03-23T03:30:29;3.53;;;1.92;;
26822;SDS011;14852;51.910;8.878;2024-03-23T03:32:54;3.70;;;2.00;;
26822;SDS011;14852;51.910;8.878;2024-03-23T03:35:20;6.50;;;1.92;;
26822;SDS011;14852;51.910;8.878;2024-03-23T03:37:46;4.50;;;2.20;;
26822;SDS011;14852;51.910;8.878;2024-03-23T03:40:12;3.25;;;2.17;;
26822;SDS011;14852;51.910;8.878;2024-03-23T03:42:40;4.93;;;1.52;;
26822;SDS011;14852;51.910;8.878;2024-03-23T03:45:06;4.88;;;2.42;;
26822;SDS011;14852;51.910;8.878;2024-03-23T03:47:32;4.35;;;1.90;;
26822;SDS011;14852;51.910;8.878;2024-03-23T03:49:58;4.15;;;2.13;;
26822;SDS011;14852;51.910;8.878;2024-03-23T03:52:24;5.78;;;1.40;;
26822;SDS011;14852;51.910;8.878;2024-03-23T03:54:50;6.00;;;1.90;;
26822;SDS011;14852;51.910;8.878;2024-03-23T03:57:16;3.85;;;2.47;;
26822;SDS011;14852;51.910;8.878;2024-03-23T03:59:42;3.00;;;1.50;;
26822;SDS011;14852;51.910;8.878;2024-03-23T04:02:07;5.15;;;2.08;;
26822;SDS011;14852;51.910;8.878;2024-03-23T04:04:33;3.55;;;1.40;;
26822;SDS011;14852;51.910;8.878;2024-03-23T04:06:59;4.47;;;1.58;;
26822;SDS011;14852;51.910;8.878;2024-03-23T04:09:27;3.25;;;2.10;;
26822;SDS011;14852;51.910;8.878;2024-03-23T04:11:53;3.80;;;1.77;;
26822;SDS011;14852;51.910;8.878;2024-03-23T04:14:19;2.65;;;1.58;;
26822;SDS011;14852;51.910;8.878;2024-03-23T04:16:45;5.28;;;1.58;;
26822;SDS011;14852;51.910;8.878;2024-03-23T04:19:11;4.82;;;1.90;;
26822;SDS011;14852;51.910;8.878;2024-03-23T04:21:40;6.88;;;1.85;;
26822;SDS011;14852;51.910;8.878;2024-03-23T04:24:06;6.70;;;2.67;;
26822;SDS011;14852;51.910;8.878;2024-03-23T04:26:41;7.20;;;2.53;;
26822;SDS011;14852;51.910;8.878;2024-03-23T04:29:11;3.88;;;1.85;;
26822;SDS011;14852;51.910;8.878;2024-03-23T04:31:37;5.97;;;2.13;;
26822;SDS011;14852;51.910;8.878;2024-03-23T04:34:03;3.67;;;2.35;;
26822;SDS011;14852;51.910;8.878;2024-03-23T04:36:29;5.72;;;2.75;;
26822;SDS011;14852;51.910;8.878;2024-03-23T04:38:56;7.57;;;2.38;;
26822;SDS011;14852;51.910;8.878;2024-03-23T04:41:24;7.60;;;3.05;;
26822;SDS011;14852;51.910;8.878;2024-03-23T04:43:50;6.80;;;2.40;;
26822;SDS011;14852;51.910;8.878;2024-03-23T04:46:16;5.45;;;2.03;;
26822;SDS011;14852;51.910;8.878;2024-03-23T04:48:42;5.72;;;2.35;;
26822;SDS011;14852;51.910;8.878;2024-03-23T04:51:09;6.05;;;2.50;;
26822;SDS011;14852;51.910;8.878;2024-03-23T04:53:37;7.03;;;2.72;;
26822;SDS011;14852;51.910;8.878;2024-03-23T04:56:03;7.35;;;2.35;;
26822;SDS011;14852;51.910;8.878;2024-03-23T04:58:29;4.60;;;2.90;;
26822;SDS011;14852;51.910;8.878;2024-03-23T05:00:55;5.85;;;2.88;;
26822;SDS011;14852;51.910;8.878;2024-03-23T05:03:22;5.32;;;2.55;;
26822;SDS011;14852;51.910;8.878;2024-03-23T05:05:49;6.47;;;2.33;;
26822;SDS011;14852;51.910;8.878;2024-03-23T05:08:15;4.68;;;2.13;;
26822;SDS011;14852;51.910;8.878;2024-03-23T05:10:42;2.55;;;1.83;;
26822;SDS011;14852;51.910;8.878;2024-03-23T05:13:08;5.28;;;2.22;;
26822;SDS011;14852;51.910;8.878;2024-03-23T05:15:34;2.85;;;1.90;;
26822;SDS011;14852;51.910;8.878;2024-03-23T05:18:00;5.70;;;1.88;;
26822;SDS011;14852;51.910;8.878;2024-03-23T05:20:27;6.25;;;2.30;;
26822;SDS011;14852;51.910;8.878;2024-03-23T05:22:56;3.63;;;1.77;;
26822;SDS011;14852;51.910;8.878;2024-03-23T05:25:37;4.18;;;1.83;;
26822;SDS011;14852;51.910;8.878;2024-03-23T05:28:09;3.28;;;1.67;;
26822;SDS011;14852;51.910;8.878;2024-03-23T05:30:40;3.75;;;1.90;;
26822;SDS011;14852;51.910;8.878;2024-03-23T05:33:15;3.20;;;1.65;;
26822;SDS011;14852;51.910;8.878;2024-03-23T05:35:44;3.53;;;2.38;;
26822;SDS011;14852;51.910;8.878;2024-03-23T05:38:13;3.80;;;1.63;;
26822;SDS011;14852;51.910;8.878;2024-03-23T05:40:42;6.63;;;2.88;;
26822;SDS011;14852;51.910;8.878;2024-03-23T05:43:22;4.32;;;1.90;;
26822;SDS011;14852;51.910;8.878;2024-03-23T05:45:58;9.18;;;2.30;;
26822;SDS011;14852;51.910;8.878;2024-03-23T05:48:31;7.72;;;2.63;;
26822;SDS011;14852;51.910;8.878;2024-03-23T05:51:00;4.78;;;2.20;;
26822;SDS011;14852;51.910;8.878;2024-03-23T05:53:27;4.97;;;1.85;;
26822;SDS011;14852;51.910;8.878;2024-03-23T05:56:02;4.45;;;2.47;;
26822;SDS011;14852;51.910;8.878;2024-03-23T05:58:29;5.57;;;1.52;;
26822;SDS011;14852;51.910;8.878;2024-03-23T06:00:58;7.75;;;2.30;;
26822;SDS011;14852;51.910;8.878;2024-03-23T06:03:26;5.32;;;1.92;;
26822;SDS011;14852;51.910;8.878;2024-03-23T06:05:53;4.35;;;1.80;;
26822;SDS011;14852;51.910;8.878;2024-03-23T06:08:19;4.70;;;1.50;;
26822;SDS011;14852;51.910;8.878;2024-03-23T06:10:46;3.35;;;1.95;;
26822;SDS011;14852;51.910;8.878;2024-03-23T06:13:12;5.15;;;1.92;;
26822;SDS011;14852;51.910;8.878;2024-03-23T06:15:38;5.03;;;2.00;;
26822;SDS011;14852;51.910;8.878;2024-03-23T06:18:04;6.00;;;1.95;;
26822;SDS011;14852;51.910;8.878;2024-03-23T06:20:32;7.55;;;2.22;;
26822;SDS011;14852;51.910;8.878;2024-03-23T06:22:59;7.20;;;2.88;;
26822;SDS011;14852;51.910;8.878;2024-03-23T06:25:28;3.67;;;2.20;;
26822;SDS011;14852;51.910;8.878;2024-03-23T06:27:54;14.82;;;2.60;;
26822;SDS011;14852;51.910;8.878;2024-03-23T06:30:20;2.90;;;1.88;;
26822;SDS011;14852;51.910;8.878;2024-03-23T06:32:46;3.45;;;2.22;;
26822;SDS011;14852;51.910;8.878;2024-03-23T06:35:12;6.18;;;2.22;;
26822;SDS011;14852;51.910;8.878;2024-03-23T06:37:38;4.32;;;2.45;;
26822;SDS011;14852;51.910;8.878;2024-03-23T06:40:06;3.72;;;1.60;;
26822;SDS011;14852;51.910;8.878;2024-03-23T06:42:35;8.18;;;3.08;;
26822;SDS011;14852;51.910;8.878;2024-03-23T06:45:02;8.27;;;3.05;;
26822;SDS011;14852;51.910;8.878;2024-03-23T06:47:29;8.38;;;2.50;;
26822;SDS011;14852;51.910;8.878;2024-03-23T06:49:55;6.30;;;2.45;;
26822;SDS011;14852;51.910;8.878;2024-03-23T06:52:21;7.35;;;2.72;;
26822;SDS011;14852;51.910;8.878;2024-03-23T06:54:47;5.35;;;2.28;;
26822;SDS011;14852;51.910;8.878;2024-03-23T06:57:13;5.00;;;2.60;;
26822;SDS011;14852;51.910;8.878;2024-03-23T06:59:39;4.97;;;2.30;;
26822;SDS011;14852;51.910;8.878;2024-03-23T07:02:08;3.50;;;2.33;;
26822;SDS011;14852;51.910;8.878;2024-03-23T07:04:34;6.30;;;2.60;;
26822;SDS011;14852;51.910;8.878;2024-03-23T07:07:00;4.82;;;2.33;;
26822;SDS011;14852;51.910;8.878;2024-03-23T07:09:28;6.43;;;2.83;;
26822;SDS011;14852;51.910;8.878;2024-03-23T07:11:54;8.13;;;3.13;;
26822;SDS011;14852;51.910;8.878;2024-03-23T07:14:24;8.02;;;2.97;;
26822;SDS011;14852;51.910;8.878;2024-03-23T07:16:50;6.97;;;4.05;;
26822;SDS011;14852;51.910;8.878;2024-03-23T07:19:16;5.50;;;2.60;;
26822;SDS011;14852;51.910;8.878;2024-03-23T07:21:43;10.68;;;3.33;;
26822;SDS011;14852;51.910;8.878;2024-03-23T07:24:09;6.78;;;4.05;;
26822;SDS011;14852;51.910;8.878;2024-03-23T07:26:35;6.22;;;3.28;;
26822;SDS011;14852;51.910;8.878;2024-03-23T07:29:02;5.00;;;3.45;;
26822;SDS011;14852;51.910;8.878;2024-03-23T07:31:29;12.98;;;4.47;;
26822;SDS011;14852;51.910;8.878;2024-03-23T07:33:55;10.20;;;4.45;;
26822;SDS011;14852;51.910;8.878;2024-03-23T07:36:21;10.15;;;4.38;;
26822;SDS011;14852;51.910;8.878;2024-03-23T07:38:46;11.95;;;4.15;;
26822;SDS011;14852;51.910;8.878;2024-03-23T07:41:16;9.40;;;4.43;;
26822;SDS011;14852;51.910;8.878;2024-03-23T07:43:44;8.35;;;4.20;;
26822;SDS011;14852;51.910;8.878;2024-03-23T07:46:12;11.90;;;6.00;;
26822;SDS011;14852;51.910;8.878;2024-03-23T07:48:41;13.10;;;5.18;;
26822;SDS011;14852;51.910;8.878;2024-03-23T07:51:10;14.52;;;5.03;;
26822;SDS011;14852;51.910;8.878;2024-03-23T07:53:43;9.48;;;4.38;;
26822;SDS011;14852;51.910;8.878;2024-03-23T07:56:11;11.75;;;5.10;;
26822;SDS011;14852;51.910;8.878;2024-03-23T07:58:37;14.43;;;5.05;;
26822;SDS011;14852;51.910;8.878;2024-03-23T08:01:04;9.45;;;4.80;;
26822;SDS011;14852;51.910;8.878;2024-03-23T08:03:38;13.30;;;5.65;;
26822;SDS011;14852;51.910;8.878;2024-03-23T08:06:12;12.38;;;6.22;;
26822;SDS011;14852;51.910;8.878;2024-03-23T08:08:45;16.15;;;6.20;;
26822;SDS011;14852;51.910;8.878;2024-03-23T08:11:12;8.73;;;5.95;;
26822;SDS011;14852;51.910;8.878;2024-03-23T08:13:40;10.57;;;6.07;;
26822;SDS011;14852;51.910;8.878;2024-03-23T08:16:07;18.02;;;7.13;;
26822;SDS011;14852;51.910;8.878;2024-03-23T08:18:37;9.32;;;5.57;;
26822;SDS011;14852;51.910;8.878;2024-03-23T08:21:03;15.68;;;6.43;;
26822;SDS011;14852;51.910;8.878;2024-03-23T08:23:31;14.43;;;6.82;;
26822;SDS011;14852;51.910;8.878;2024-03-23T08:26:02;12.93;;;6.10;;
26822;SDS011;14852;51.910;8.878;2024-03-23T08:28:37;16.30;;;6.85;;
26822;SDS011;14852;51.910;8.878;2024-03-23T08:31:09;9.38;;;6.43;;
26822;SDS011;14852;51.910;8.878;2024-03-23T08:33:37;14.15;;;6.85;;
26822;SDS011;14852;51.910;8.878;2024-03-23T08:36:07;13.57;;;6.60;;
26822;SDS011;14852;51.910;8.878;2024-03-23T08:38:35;13.57;;;6.50;;
26822;SDS011;14852;51.910;8.878;2024-03-23T08:41:04;16.10;;;7.72;;
26822;SDS011;14852;51.910;8.878;2024-03-23T08:43:33;13.68;;;5.90;;
26822;SDS011;14852;51.910;8.878;2024-03-23T08:46:09;14.57;;;6.75;;
26822;SDS011;14852;51.910;8.878;2024-03-23T08:48:46;11.90;;;6.38;;
26822;SDS011;14852;51.910;8.878;2024-03-23T08:51:14;14.98;;;6.07;;
26822;SDS011;14852;51.910;8.878;2024-03-23T08:53:42;14.60;;;6.20;;
26822;SDS011;14852;51.910;8.878;2024-03-23T08:56:08;9.07;;;4.80;;
26822;SDS011;14852;51.910;8.878;2024-03-23T08:58:35;10.88;;;5.20;;
26822;SDS011;14852;51.910;8.878;2024-03-23T09:01:03;10.23;;;5.80;;
26822;SDS011;14852;51.910;8.878;2024-03-23T09:03:31;8.43;;;5.05;;
26822;SDS011;14852;51.910;8.878;2024-03-23T09:05:57;10.25;;;5.50;;
26822;SDS011;14852;51.910;8.878;2024-03-23T09:08:23;10.57;;;5.20;;
26822;SDS011;14852;51.910;8.878;2024-03-23T09:10:49;11.88;;;5.13;;
26822;SDS011;14852;51.910;8.878;2024-03-23T09:13:15;9.65;;;5.55;;
26822;SDS011;14852;51.910;8.878;2024-03-23T09:15:51;13.18;;;5.20;;
26822;SDS011;14852;51.910;8.878;2024-03-23T09:18:21;10.30;;;5.50;;
26822;SDS011;14852;51.910;8.878;2024-03-23T09:20:47;8.98;;;4.82;;
26822;SDS011;14852;51.910;8.878;2024-03-23T09:23:13;10.27;;;5.03;;
26822;SDS011;14852;51.910;8.878;2024-03-23T09:25:39;6.97;;;4.40;;
26822;SDS011;14852;51.910;8.878;2024-03-23T09:28:05;8.02;;;4.90;;
26822;SDS011;14852;51.910;8.878;2024-03-23T09:30:33;11.43;;;5.40;;
26822;SDS011;14852;51.910;8.878;2024-03-23T09:33:00;9.60;;;4.35;;
26822;SDS011;14852;51.910;8.878;2024-03-23T09:35:28;9.23;;;4.25;;
26822;SDS011;14852;51.910;8.878;2024-03-23T09:37:53;17.17;;;5.18;;
26822;SDS011;14852;51.910;8.878;2024-03-23T09:40:19;12.00;;;3.92;;
26822;SDS011;14852;51.910;8.878;2024-03-23T09:42:49;8.68;;;4.35;;
26822;SDS011;14852;51.910;8.878;2024-03-23T09:45:23;7.70;;;4.30;;
26822;SDS011;14852;51.910;8.878;2024-03-23T09:47:53;9.63;;;3.33;;
26822;SDS011;14852;51.910;8.878;2024-03-23T09:50:20;8.30;;;3.65;;
26822;SDS011;14852;51.910;8.878;2024-03-23T09:52:47;7.55;;;4.10;;
26822;SDS011;14852;51.910;8.878;2024-03-23T09:55:13;8.10;;;3.50;;
26822;SDS011;14852;51.910;8.878;2024-03-23T09:57:39;9.70;;;3.38;;
26822;SDS011;14852;51.910;8.878;2024-03-23T10:00:06;11.05;;;4.38;;
26822;SDS011;14852;51.910;8.878;2024-03-23T10:02:33;7.30;;;2.88;;
26822;SDS011;14852;51.910;8.878;2024-03-23T10:05:00;7.07;;;3.30;;
26822;SDS011;14852;51.910;8.878;2024-03-23T10:07:26;10.38;;;3.60;;
26822;SDS011;14852;51.910;8.878;2024-03-23T10:09:55;6.95;;;3.38;;
26822;SDS011;14852;51.910;8.878;2024-03-23T10:12:22;7.63;;;2.88;;
26822;SDS011;14852;51.910;8.878;2024-03-23T10:14:49;7.38;;;3.28;;
26822;SDS011;14852;51.910;8.878;2024-03-23T10:17:16;8.15;;;3.03;;
26822;SDS011;14852;51.910;8.878;2024-03-23T10:19:49;5.97;;;2.95;;
26822;SDS011;14852;51.910;8.878;2024-03-23T10:22:18;8.50;;;3.42;;
26822;SDS011;14852;51.910;8.878;2024-03-23T10:24:49;5.53;;;3.50;;
26822;SDS011;14852;51.910;8.878;2024-03-23T10:27:16;5.53;;;3.78;;
26822;SDS011;14852;51.910;8.878;2024-03-23T10:29:47;6.20;;;3.65;;
26822;SDS011;14852;51.910;8.878;2024-03-23T10:32:14;7.22;;;2.78;;
26822;SDS011;14852;51.910;8.878;2024-03-23T10:34:43;8.38;;;3.97;;
26822;SDS011;14852;51.910;8.878;2024-03-23T10:37:10;5.18;;;2.70;;
26822;SDS011;14852;51.910;8.878;2024-03-23T10:39:37;7.75;;;3.25;;
26822;SDS011;14852;51.910;8.878;2024-03-23T10:42:05;6.70;;;3.25;;
26822;SDS011;14852;51.910;8.878;2024-03-23T10:44:38;9.57;;;3.05;;
26822;SDS011;14852;51.910;8.878;2024-03-23T10:47:04;7.07;;;3.28;;
26822;SDS011;14852;51.910;8.878;2024-03-23T10:49:34;4.78;;;2.63;;
26822;SDS011;14852;51.910;8.878;2024-03-23T10:52:04;8.75;;;4.13;;
26822;SDS011;14852;51.910;8.878;2024-03-23T10:54:31;5.13;;;3.83;;
26822;SDS011;14852;51.910;8.878;2024-03-23T10:59:40;7.93;;;3.78;;
26822;SDS011;14852;51.910;8.878;2024-03-23T11:02:07;9.70;;;3.13;;
26822;SDS011;14852;51.910;8.878;2024-03-23T11:04:43;5.15;;;2.88;;
26822;SDS011;14852;51.910;8.878;2024-03-23T11:09:49;7.28;;;2.10;;
26822;SDS011;14852;51.910;8.878;2024-03-23T11:14:57;5.22;;;1.80;;
26822;SDS011;14852;51.910;8.878;2024-03-23T11:17:29;3.50;;;2.17;;
26822;SDS011;14852;51.910;8.878;2024-03-23T11:19:59;3.95;;;2.13;;
26822;SDS011;14852;51.910;8.878;2024-03-23T11:25:17;2.60;;;1.45;;
26822;SDS011;14852;51.910;8.878;2024-03-23T11:27:56;1.90;;;1.52;;
26822;SDS011;14852;51.910;8.878;2024-03-23T11:30:35;5.35;;;2.42;;
26822;SDS011;14852;51.910;8.878;2024-03-23T11:33:03;3.97;;;1.48;;
26822;SDS011;14852;51.910;8.878;2024-03-23T11:35:39;3.05;;;1.48;;
26822;SDS011;14852;51.910;8.878;2024-03-23T11:40:48;2.25;;;1.52;;
26822;SDS011;14852;51.910;8.878;2024-03-23T11:43:18;4.65;;;2.35;;
26822;SDS011;14852;51.910;8.878;2024-03-23T11:45:47;5.72;;;2.22;;
26822;SDS011;14852;51.910;8.878;2024-03-23T11:48:19;4.53;;;1.65;;
26822;SDS011;14852;51.910;8.878;2024-03-23T11:50:47;2.88;;;1.80;;
26822;SDS011;14852;51.910;8.878;2024-03-23T11:53:23;3.35;;;1.73;;
26822;SDS011;14852;51.910;8.878;2024-03-23T11:58:19;2.72;;;2.25;;
26822;SDS011;14852;51.910;8.878;2024-03-23T12:03:25;2.38;;;1.92;;
26822;SDS011;14852;51.910;8.878;2024-03-23T12:05:54;1.75;;;1.63;;
26822;SDS011;14852;51.910;8.878;2024-03-23T12:08:21;3.38;;;1.77;;
26822;SDS011;14852;51.910;8.878;2024-03-23T12:10:52;5.97;;;1.90;;
26822;SDS011;14852;51.910;8.878;2024-03-23T12:13:30;5.53;;;2.47;;
26822;SDS011;14852;51.910;8.878;2024-03-23T12:15:57;6.15;;;2.42;;
26822;SDS011;14852;51.910;8.878;2024-03-23T12:18:48;6.13;;;3.03;;
26822;SDS011;14852;51.910;8.878;2024-03-23T12:21:16;4.22;;;2.33;;
26822;SDS011;14852;51.910;8.878;2024-03-23T12:23:42;4.32;;;2.20;;
26822;SDS011;14852;51.910;8.878;2024-03-23T12:26:10;3.63;;;2.60;;
26822;SDS011;14852;51.910;8.878;2024-03-23T12:28:37;5.57;;;2.47;;
26822;SDS011;14852;51.910;8.878;2024-03-23T12:31:03;3.40;;;2.70;;
26822;SDS011;14852;51.910;8.878;2024-03-23T12:33:29;7.85;;;3.58;;
26822;SDS011;14852;51.910;8.878;2024-03-23T12:35:55;8.25;;;2.50;;
26822;SDS011;14852;51.910;8.878;2024-03-23T12:38:21;4.30;;;2.67;;
26822;SDS011;14852;51.910;8.878;2024-03-23T12:40:47;5.65;;;2.40;;
26822;SDS011;14852;51.910;8.878;2024-03-23T12:43:14;3.30;;;2.80;;
26822;SDS011;14852;51.910;8.878;2024-03-23T12:45:40;5.05;;;2.92;;
26822;SDS011;14852;51.910;8.878;2024-03-23T12:48:06;3.53;;;2.20;;
26822;SDS011;14852;51.910;8.878;2024-03-23T12:50:32;6.88;;;2.67;;
26822;SDS011;14852;51.910;8.878;2024-03-23T12:52:58;7.65;;;2.75;;
26822;SDS011;14852;51.910;8.878;2024-03-23T12:55:24;3.55;;;1.40;;
26822;SDS011;14852;51.910;8.878;2024-03-23T12:57:50;2.28;;;1.20;;
26822;SDS011;14852;51.910;8.878;2024-03-23T13:00:15;1.00;;;0.70;;
26822;SDS011;14852;51.910;8.878;2024-03-23T13:02:42;2.22;;;1.17;;
26822;SDS011;14852;51.910;8.878;2024-03-23T13:05:07;0.80;;;0.60;;
26822;SDS011;14852;51.910;8.878;2024-03-23T13:07:36;0.82;;;0.70;;
26822;SDS011;14852;51.910;8.878;2024-03-23T13:10:03;1.15;;;0.73;;
26822;SDS011;14852;51.910;8.878;2024-03-23T13:12:30;0.77;;;0.77;;
26822;SDS011;14852;51.910;8.878;2024-03-23T13:14:58;0.98;;;0.63;;
26822;SDS011;14852;51.910;8.878;2024-03-23T13:17:24;3.00;;;1.05;;
26822;SDS011;14852;51.910;8.878;2024-03-23T13:19:52;1.33;;;0.88;;
26822;SDS011;14852;51.910;8.878;2024-03-23T13:22:21;2.95;;;0.98;;
26822;SDS011;14852;51.910;8.878;2024-03-23T13:24:47;2.70;;;1.40;;
26822;SDS011;14852;51.910;8.878;2024-03-23T13:27:13;2.30;;;1.20;;
26822;SDS011;14852;51.910;8.878;2024-03-23T13:29:38;2.00;;;1.30;;
26822;SDS011;14852;51.910;8.878;2024-03-23T13:32:04;2.70;;;1.40;;
26822;SDS011;14852;51.910;8.878;2024-03-23T13:34:31;3.60;;;1.50;;
26822;SDS011;14852;51.910;8.878;2024-03-23T13:36:58;2.13;;;1.55;;
26822;SDS011;14852;51.910;8.878;2024-03-23T13:39:24;2.20;;;1.58;;
26822;SDS011;14852;51.910;8.878;2024-03-23T13:41:52;4.15;;;1.83;;
26822;SDS011;14852;51.910;8.878;2024-03-23T13:44:18;3.10;;;1.35;;
26822;SDS011;14852;51.910;8.878;2024-03-23T13:46:43;2.45;;;1.42;;
26822;SDS011;14852;51.910;8.878;2024-03-23T13:49:29;2.00;;;1.50;;
26822;SDS011;14852;51.910;8.878;2024-03-23T13:51:57;4.00;;;1.80;;
26822;SDS011;14852;51.910;8.878;2024-03-23T13:54:24;3.53;;;1.63;;
26822;SDS011;14852;51.910;8.878;2024-03-23T13:56:51;6.13;;;1.90;;
26822;SDS011;14852;51.910;8.878;2024-03-23T13:59:17;3.20;;;1.33;;
26822;SDS011;14852;51.910;8.878;2024-03-23T14:01:44;2.55;;;1.58;;
26822;SDS011;14852;51.910;8.878;2024-03-23T14:04:11;2.45;;;1.90;;
26822;SDS011;14852;51.910;8.878;2024-03-23T14:06:37;5.00;;;1.70;;
26822;SDS011;14852;51.910;8.878;2024-03-23T14:09:03;1.33;;;1.00;;
26822;SDS011;14852;51.910;8.878;2024-03-23T14:11:29;1.50;;;0.90;;
26822;SDS011;14852;51.910;8.878;2024-03-23T14:13:55;0.75;;;0.63;;
26822;SDS011;14852;51.910;8.878;2024-03-23T14:16:21;1.73;;;0.90;;
26822;SDS011;14852;51.910;8.878;2024-03-23T14:18:47;1.33;;;0.90;;
26822;SDS011;14852;51.910;8.878;2024-03-23T14:21:13;1.77;;;1.00;;
26822;SDS011;14852;51.910;8.878;2024-03-23T14:23:39;1.05;;;0.95;;
26822;SDS011;14852;51.910;8.878;2024-03-23T14:26:06;2.58;;;1.10;;
26822;SDS011;14852;51.910;8.878;2024-03-23T14:28:33;1.65;;;1.00;;
26822;SDS011;14852;51.910;8.878;2024-03-23T14:30:59;3.08;;;0.90;;
26822;SDS011;14852;51.910;8.878;2024-03-23T14:33:24;1.65;;;1.15;;
26822;SDS011;14852;51.910;8.878;2024-03-23T14:35:53;1.25;;;0.80;;
26822;SDS011;14852;51.910;8.878;2024-03-23T14:38:23;2.97;;;1.15;;
26822;SDS011;14852;51.910;8.878;2024-03-23T14:40:49;4.72;;;1.65;;
26822;SDS011;14852;51.910;8.878;2024-03-23T14:43:17;3.45;;;2.25;;
26822;SDS011;14852;51.910;8.878;2024-03-23T14:48:39;2.47;;;1.83;;
26822;SDS011;14852;51.910;8.878;2024-03-23T14:51:06;3.40;;;2.13;;
26822;SDS011;14852;51.910;8.878;2024-03-23T14:53:33;2.92;;;2.00;;
26822;SDS011;14852;51.910;8.878;2024-03-23T14:56:09;4.00;;;1.92;;
26822;SDS011;14852;51.910;8.878;2024-03-23T14:58:38;2.63;;;1.50;;
26822;SDS011;14852;51.910;8.878;2024-03-23T15:01:05;2.95;;;1.70;;
26822;SDS011;14852;51.910;8.878;2024-03-23T15:03:38;1.25;;;1.05;;
26822;SDS011;14852;51.910;8.878;2024-03-23T15:06:05;2.50;;;1.90;;
26822;SDS011;14852;51.910;8.878;2024-03-23T15:08:34;2.85;;;1.58;;
26822;SDS011;14852;51.910;8.878;2024-03-23T15:11:00;3.72;;;1.17;;
26822;SDS011;14852;51.910;8.878;2024-03-23T15:13:30;2.00;;;1.30;;
26822;SDS011;14852;51.910;8.878;2024-03-23T15:15:59;2.63;;;1.58;;
26822;SDS011;14852;51.910;8.878;2024-03-23T15:18:25;1.27;;;1.17;;
26822;SDS011;14852;51.910;8.878;2024-03-23T15:21:00;2.63;;;1.58;;
26822;SDS011;14852;51.910;8.878;2024-03-23T15:23:28;2.47;;;1.60;;
26822;SDS011;14852;51.910;8.878;2024-03-23T15:25:55;2.92;;;1.80;;
26822;SDS011;14852;51.910;8.878;2024-03-23T15:28:25;4.03;;;1.27;;
26822;SDS011;14852;51.910;8.878;2024-03-23T15:31:09;2.20;;;1.10;;
26822;SDS011;14852;51.910;8.878;2024-03-23T15:33:35;2.60;;;1.15;;
26822;SDS011;14852;51.910;8.878;2024-03-23T15:36:04;1.10;;;1.00;;
26822;SDS011;14852;51.910;8.878;2024-03-23T15:38:31;1.83;;;1.27;;
26822;SDS011;14852;51.910;8.878;2024-03-23T15:40:57;2.72;;;1.30;;
26822;SDS011;14852;51.910;8.878;2024-03-23T15:43:24;1.80;;;1.13;;
26822;SDS011;14852;51.910;8.878;2024-03-23T15:45:54;2.05;;;1.17;;
26822;SDS011;14852;51.910;8.878;2024-03-23T15:48:26;2.38;;;0.88;;
26822;SDS011;14852;51.910;8.878;2024-03-23T15:51:02;1.80;;;1.10;;
26822;SDS011;14852;51.910;8.878;2024-03-23T15:53:29;2.30;;;1.23;;
26822;SDS011;14852;51.910;8.878;2024-03-23T15:55:56;2.85;;;1.40;;
26822;SDS011;14852;51.910;8.878;2024-03-23T15:58:26;3.00;;;1.30;;
26822;SDS011;14852;51.910;8.878;2024-03-23T16:03:28;2.85;;;1.50;;
26822;SDS011;14852;51.910;8.878;2024-03-23T16:06:02;3.42;;;1.90;;